This is the latest recevied weather packets stored in our database for station/object 9M2EVR-2. If no packets are shown the sender has not sent any weather packets the latest 10 day(s).
| Time | Temp. | Humidity | Pressure | Rain* | Wind** | Luminosity | Snow |
|---|---|---|---|---|---|---|---|
| 1777812119 | 36.67° C | 47% | 1006.7 hPa | - | - | - | - |
| 1777810356 | 37.78° C | 46% | 1006.3 hPa | - | - | - | - |
| 1777809455 | 38.33° C | 45% | 1005.8 hPa | - | - | - | - |
| 1777806753 | 38.89° C | 44% | 1005.3 hPa | - | - | - | - |
| 1777805852 | 39.44° C | 44% | 1005 hPa | - | - | - | - |
| 1777804951 | 39.44° C | 47% | 1004.5 hPa | - | - | - | - |
| 1777804050 | 40° C | 46% | 1004 hPa | - | - | - | - |
| 1777803150 | 40.56° C | 44% | 1002.9 hPa | - | - | - | - |
| 1777802249 | 42.22° C | 40% | 1003.1 hPa | - | - | - | - |
| 1777801348 | 43.33° C | 36% | 1002.8 hPa | - | - | - | - |
| 1777800447 | 43.89° C | 36% | 1002.7 hPa | - | - | - | - |
| 1777799546 | 43.89° C | 36% | 1002.5 hPa | - | - | - | - |
| 1777798646 | 43.89° C | 36% | 1002.3 hPa | - | - | - | - |
| 1777797745 | 43.89° C | 36% | 1002.4 hPa | - | - | - | - |
| 1777796844 | 43.89° C | 36% | 1002.5 hPa | - | - | - | - |
| 1777795943 | 43.89° C | 37% | 1002.8 hPa | - | - | - | - |
| 1777795042 | 43.33° C | 36% | 1002.9 hPa | - | - | - | - |
| 1777794142 | 43.33° C | 37% | 1002.8 hPa | - | - | - | - |
| 1777793241 | 43.33° C | 37% | 1003.4 hPa | - | - | - | - |
| 1777792340 | 43.33° C | 37% | 1003.8 hPa | - | - | - | - |
| 1777791439 | 43.33° C | 37% | 1003.9 hPa | - | - | - | - |
| 1777790538 | 43.33° C | 37% | 1004 hPa | - | - | - | - |
| 1777789637 | 43.33° C | 38% | 1004.6 hPa | - | - | - | - |
| 1777788737 | 43.33° C | 38% | 1005.1 hPa | - | - | - | - |
| 1777787835 | 42.78° C | 38% | 1005.4 hPa | - | - | - | - |
* Rain since midnight (hover to see other rain measurements)
** Current wind speed in m/s (hover to see current wind gust speed)